createdAt,value
2023-03-10T00:00:40.582Z,8.70
2023-03-10T00:03:08.723Z,8.70
2023-03-10T00:05:38.035Z,8.70
2023-03-10T00:08:07.079Z,8.70
2023-03-10T00:10:36.947Z,8.70
2023-03-10T00:13:05.006Z,8.80
2023-03-10T00:15:33.072Z,8.80
2023-03-10T00:18:01.128Z,8.80
2023-03-10T00:20:29.268Z,8.80
2023-03-10T00:22:57.390Z,8.70
2023-03-10T00:25:25.424Z,8.80
2023-03-10T00:27:54.879Z,8.80
2023-03-10T00:30:23.014Z,8.80
2023-03-10T00:32:51.517Z,8.80
2023-03-10T00:39:16.794Z,8.90
2023-03-10T00:41:44.887Z,9.00
2023-03-10T00:44:14.348Z,9.00
2023-03-10T00:46:42.577Z,9.10
2023-03-10T00:49:12.979Z,8.90
2023-03-10T00:51:41.143Z,9.10
2023-03-10T00:54:09.443Z,9.10
2023-03-10T00:56:37.603Z,9.10
2023-03-10T00:59:06.951Z,9.20
2023-03-10T01:01:39.519Z,9.10
2023-03-10T01:04:10.038Z,9.20
2023-03-10T01:06:38.240Z,9.10
2023-03-10T01:09:07.045Z,9.30
2023-03-10T01:11:35.247Z,9.40
2023-03-10T01:14:05.688Z,9.20
2023-03-10T01:16:34.264Z,9.30
2023-03-10T01:19:03.681Z,9.40
2023-03-10T01:25:19.280Z,9.20
2023-03-10T01:27:47.269Z,9.20
2023-03-10T01:30:16.060Z,9.20
2023-03-10T01:32:44.139Z,9.30
2023-03-10T01:35:30.211Z,9.10
2023-03-10T01:37:58.557Z,9.40
2023-03-10T01:40:27.616Z,9.20
2023-03-10T01:43:28.616Z,9.20
2023-03-10T01:46:46.319Z,9.30
2023-03-10T01:49:19.371Z,9.30
2023-03-10T01:51:51.714Z,9.20
2023-03-10T01:54:23.901Z,9.10
2023-03-10T01:56:52.536Z,9.10
2023-03-10T01:59:21.187Z,9.20
2023-03-10T02:01:50.461Z,9.20
2023-03-10T02:04:23.746Z,9.30
2023-03-10T02:06:53.640Z,9.10
2023-03-10T02:09:22.501Z,9.20
2023-03-10T02:11:51.122Z,9.20
2023-03-10T02:14:19.722Z,9.10
2023-03-10T02:16:47.892Z,9.20
2023-03-10T02:19:28.113Z,9.20
2023-03-10T02:22:04.915Z,9.10
2023-03-10T02:24:37.463Z,9.30
2023-03-10T02:27:14.348Z,9.20
2023-03-10T02:29:58.431Z,9.20
2023-03-10T02:32:28.261Z,9.20
2023-03-10T02:34:56.345Z,9.10
2023-03-10T02:37:26.794Z,9.10
2023-03-10T02:39:55.005Z,9.20
2023-03-10T02:42:27.371Z,9.10
2023-03-10T02:44:55.691Z,9.20
2023-03-10T02:47:24.147Z,9.20
2023-03-10T02:49:52.280Z,9.20
2023-03-10T02:52:27.148Z,9.10
2023-03-10T02:54:55.197Z,9.20
2023-03-10T02:57:24.677Z,9.10
2023-03-10T02:59:52.815Z,9.20
2023-03-10T03:02:20.896Z,9.20
2023-03-10T03:04:49.029Z,9.10
2023-03-10T03:07:17.162Z,9.00
2023-03-10T03:09:45.281Z,9.00
2023-03-10T03:12:13.383Z,9.10
2023-03-10T03:14:42.784Z,9.10
2023-03-10T03:17:10.876Z,9.10
2023-03-10T03:19:38.887Z,9.10
2023-03-10T03:22:07.113Z,9.20
2023-03-10T03:24:35.235Z,9.10
2023-03-10T03:27:03.499Z,9.20
2023-03-10T03:29:31.592Z,9.10
2023-03-10T03:32:01.426Z,9.20
2023-03-10T03:34:29.652Z,9.00
2023-03-10T03:36:57.720Z,9.00
2023-03-10T03:39:26.106Z,9.10
2023-03-10T03:41:57.259Z,9.20
2023-03-10T03:44:25.465Z,9.10
2023-03-10T03:46:53.483Z,9.20
2023-03-10T03:49:22.924Z,9.10
2023-03-10T03:51:51.005Z,9.20
2023-03-10T03:54:19.044Z,9.10
2023-03-10T03:56:47.095Z,9.10
2023-03-10T03:59:15.140Z,9.10
2023-03-10T04:01:43.198Z,9.10
2023-03-10T04:04:11.362Z,9.10
2023-03-10T04:06:40.741Z,9.10
2023-03-10T04:09:10.451Z,9.10
2023-03-10T04:11:38.503Z,9.10
2023-03-10T04:14:06.620Z,9.10
2023-03-10T04:16:34.719Z,9.10
2023-03-10T04:19:02.781Z,9.10
2023-03-10T04:21:30.836Z,9.10
2023-03-10T04:24:00.228Z,9.10
2023-03-10T04:26:28.343Z,9.10
2023-03-10T04:28:56.597Z,9.10
2023-03-10T04:31:24.678Z,9.10
2023-03-10T04:33:52.958Z,9.10
2023-03-10T04:36:21.645Z,9.10
2023-03-10T04:38:49.673Z,9.10
2023-03-10T04:41:19.085Z,9.00
2023-03-10T04:43:48.036Z,9.00
2023-03-10T04:46:16.587Z,9.00
2023-03-10T04:48:45.319Z,8.90
2023-03-10T04:51:14.436Z,8.90
2023-03-10T04:53:42.557Z,8.90
2023-03-10T04:56:10.787Z,8.90
2023-03-10T04:58:40.456Z,9.00
2023-03-10T05:01:10.538Z,8.90
2023-03-10T05:03:38.922Z,8.90
2023-03-10T05:06:13.213Z,9.00
2023-03-10T05:08:41.544Z,8.90
2023-03-10T05:11:10.004Z,8.90
2023-03-10T05:13:39.634Z,8.90
2023-03-10T05:16:14.575Z,8.90
2023-03-10T05:18:42.767Z,8.90
2023-03-10T05:21:11.130Z,8.90
2023-03-10T05:23:39.573Z,8.90
2023-03-10T05:26:08.440Z,8.90
2023-03-10T05:28:36.697Z,8.90
2023-03-10T05:31:11.614Z,8.90
2023-03-10T05:33:39.779Z,8.90
2023-03-10T05:36:09.182Z,8.90
2023-03-10T05:38:37.818Z,8.90
2023-03-10T05:41:08.556Z,8.90
2023-03-10T05:43:36.841Z,8.90
2023-03-10T05:46:05.146Z,8.90
2023-03-10T05:48:34.764Z,8.90
2023-03-10T05:51:05.059Z,8.90
2023-03-10T05:53:34.282Z,8.90
2023-03-10T05:56:05.314Z,8.90
2023-03-10T05:58:33.424Z,8.90
2023-03-10T06:01:01.449Z,8.90
2023-03-10T06:03:30.261Z,8.90
2023-03-10T06:06:00.168Z,8.90
2023-03-10T06:08:28.943Z,8.90
2023-03-10T06:10:57.677Z,8.90
2023-03-10T06:13:26.205Z,8.90
2023-03-10T06:15:56.134Z,8.90
2023-03-10T06:18:24.542Z,8.90
2023-03-10T06:20:53.660Z,8.90
2023-03-10T06:23:23.893Z,8.90
2023-03-10T06:25:58.747Z,8.90
2023-03-10T06:28:27.532Z,8.90
2023-03-10T06:30:56.388Z,8.90
2023-03-10T06:33:25.313Z,8.90
2023-03-10T06:35:53.553Z,8.80
2023-03-10T06:38:23.214Z,8.90
2023-03-10T06:40:51.310Z,8.90
2023-03-10T06:43:19.626Z,8.90
2023-03-10T06:45:48.683Z,8.90
2023-03-10T06:48:17.112Z,8.90
2023-03-10T06:50:47.967Z,9.00
2023-03-10T06:53:16.665Z,8.90
2023-03-10T06:55:46.115Z,9.00
2023-03-10T06:58:14.219Z,9.00
2023-03-10T07:00:42.286Z,9.00
2023-03-10T07:03:11.546Z,9.00
2023-03-10T07:05:39.717Z,9.00
2023-03-10T07:08:08.078Z,9.10
2023-03-10T07:10:36.155Z,9.10
2023-03-10T07:13:05.738Z,9.10
2023-03-10T07:15:34.417Z,9.10
2023-03-10T07:18:02.462Z,9.10
2023-03-10T07:20:30.550Z,9.10
2023-03-10T07:22:58.596Z,9.10
2023-03-10T07:25:26.600Z,9.10
2023-03-10T07:27:54.786Z,9.10
2023-03-10T07:30:24.349Z,9.10
2023-03-10T07:32:53.934Z,9.10
2023-03-10T07:35:22.013Z,9.10
2023-03-10T07:37:50.190Z,9.10
2023-03-10T07:40:18.489Z,9.10
2023-03-10T07:42:46.686Z,9.20
2023-03-10T07:45:14.788Z,9.20
2023-03-10T07:47:44.237Z,9.20
2023-03-10T07:50:12.805Z,9.20
2023-03-10T07:52:40.806Z,9.30
2023-03-10T07:55:09.621Z,9.30
2023-03-10T07:57:37.877Z,9.30
2023-03-10T08:00:07.143Z,9.30
2023-03-10T08:02:35.735Z,9.40
2023-03-10T08:05:05.652Z,9.30
2023-03-10T08:07:33.824Z,9.40
2023-03-10T08:10:02.019Z,9.40
2023-03-10T08:12:30.124Z,9.40
2023-03-10T08:14:58.226Z,9.40
2023-03-10T08:17:30.794Z,9.40
2023-03-10T08:19:58.902Z,9.50
2023-03-10T08:22:28.841Z,9.50
2023-03-10T08:24:56.976Z,9.50
2023-03-10T08:27:26.033Z,9.60
2023-03-10T08:29:55.397Z,9.60
2023-03-10T08:32:23.637Z,9.60
2023-03-10T08:34:51.679Z,9.60
2023-03-10T08:37:19.921Z,9.70
2023-03-10T08:39:50.106Z,9.50
2023-03-10T08:42:18.181Z,9.50
2023-03-10T08:44:46.329Z,9.60
2023-03-10T08:47:14.372Z,9.70
2023-03-10T08:49:44.854Z,9.70
2023-03-10T08:52:14.470Z,9.80
2023-03-10T08:54:42.532Z,9.90
2023-03-10T08:57:11.972Z,9.90
2023-03-10T08:59:40.078Z,10.00
2023-03-10T09:02:08.456Z,10.00
2023-03-10T09:04:36.650Z,10.00
2023-03-10T09:07:05.204Z,10.00
2023-03-10T09:09:33.442Z,10.00
2023-03-10T09:12:01.483Z,9.90
2023-03-10T09:14:30.884Z,10.00
2023-03-10T09:16:58.948Z,10.10
2023-03-10T09:19:27.034Z,10.10
2023-03-10T09:21:57.476Z,10.00
2023-03-10T09:24:25.613Z,10.00
2023-03-10T09:26:53.628Z,10.00
2023-03-10T09:29:36.444Z,10.00
2023-03-10T09:32:11.289Z,10.00
2023-03-10T09:34:39.750Z,10.00
2023-03-10T09:37:08.634Z,9.90
2023-03-10T09:39:36.871Z,10.10
2023-03-10T09:42:37.460Z,10.10
2023-03-10T09:45:25.161Z,10.20
2023-03-10T09:48:13.948Z,10.20
2023-03-10T09:50:45.042Z,10.20
2023-03-10T09:53:27.584Z,10.30
2023-03-10T09:55:55.657Z,10.40
2023-03-10T09:58:32.085Z,10.40
2023-03-10T10:01:00.630Z,10.40
2023-03-10T10:03:46.393Z,10.60
2023-03-10T10:06:24.283Z,10.70
2023-03-10T10:09:04.307Z,10.70
2023-03-10T10:11:33.754Z,10.70
2023-03-10T10:14:28.357Z,10.70
2023-03-10T10:17:03.048Z,10.60
2023-03-10T10:19:36.682Z,10.70
2023-03-10T10:22:10.298Z,10.70
2023-03-10T10:24:38.667Z,10.90
2023-03-10T10:27:06.755Z,11.00
2023-03-10T10:29:36.540Z,11.10
2023-03-10T10:32:10.530Z,11.10
2023-03-10T10:34:41.183Z,11.20
2023-03-10T10:37:30.756Z,11.30
2023-03-10T10:39:59.806Z,11.30
2023-03-10T10:42:29.494Z,11.40
2023-03-10T10:44:59.120Z,11.50
2023-03-10T10:47:30.188Z,11.60
2023-03-10T10:50:20.275Z,11.70
2023-03-10T10:52:50.564Z,11.70
2023-03-10T10:55:29.982Z,11.90
2023-03-10T10:58:01.944Z,11.90
2023-03-10T11:00:32.462Z,11.80
2023-03-10T11:03:01.392Z,11.80
2023-03-10T11:05:37.705Z,11.80
2023-03-10T11:08:20.854Z,11.90
2023-03-10T11:10:54.567Z,11.90
2023-03-10T11:13:27.115Z,11.80
2023-03-10T11:16:01.585Z,12.00
2023-03-10T11:18:33.689Z,11.90
2023-03-10T11:21:07.863Z,11.90
2023-03-10T11:23:41.994Z,11.90
2023-03-10T11:26:18.801Z,11.80
2023-03-10T11:28:53.582Z,11.80
2023-03-10T11:31:35.722Z,11.90
2023-03-10T11:34:17.358Z,11.90
2023-03-10T11:36:56.826Z,11.90
2023-03-10T11:39:33.086Z,11.90
2023-03-10T11:42:07.544Z,11.90
2023-03-10T11:44:40.032Z,11.80
2023-03-10T11:47:13.842Z,11.80
2023-03-10T11:49:43.958Z,11.80
2023-03-10T11:52:15.617Z,11.70
2023-03-10T11:54:46.333Z,11.70
2023-03-10T11:57:17.242Z,11.60
2023-03-10T11:59:48.902Z,11.60
2023-03-10T12:02:21.185Z,11.40
2023-03-10T12:04:53.810Z,11.20
2023-03-10T12:07:26.455Z,11.20
2023-03-10T12:09:56.404Z,11.10
2023-03-10T12:12:28.945Z,11.00
2023-03-10T12:14:59.438Z,10.90
2023-03-10T12:17:27.949Z,10.80
2023-03-10T12:20:28.981Z,10.70
2023-03-10T12:22:59.791Z,10.70
2023-03-10T12:25:47.034Z,10.70
2023-03-10T12:28:34.625Z,10.70
2023-03-10T12:31:05.328Z,10.70
2023-03-10T12:33:52.831Z,10.70
2023-03-10T12:36:37.353Z,10.70
2023-03-10T12:39:41.424Z,10.70
2023-03-10T12:42:31.607Z,10.70
2023-03-10T12:45:12.947Z,10.60
2023-03-10T12:47:49.857Z,10.50
2023-03-10T12:50:27.942Z,10.40
2023-03-10T12:53:01.245Z,10.40
2023-03-10T12:55:30.583Z,10.40
2023-03-10T12:58:05.560Z,10.40
2023-03-10T13:00:43.224Z,10.50
2023-03-10T13:03:21.361Z,10.50
2023-03-10T13:06:03.119Z,10.70
2023-03-10T13:08:44.629Z,10.80
2023-03-10T13:11:25.593Z,10.70
2023-03-10T13:13:59.005Z,10.70
2023-03-10T13:16:27.871Z,10.70
2023-03-10T13:18:56.998Z,10.70
2023-03-10T13:21:28.650Z,10.70
2023-03-10T13:23:59.322Z,10.70
2023-03-10T13:26:28.393Z,10.70
2023-03-10T13:29:00.453Z,10.70
2023-03-10T13:31:31.246Z,10.70
2023-03-10T13:34:14.570Z,10.60
2023-03-10T13:36:45.916Z,10.50
2023-03-10T13:39:17.228Z,10.50
2023-03-10T13:41:47.339Z,10.40
2023-03-10T13:44:20.811Z,10.50
2023-03-10T13:46:50.794Z,10.50
2023-03-10T13:49:20.415Z,10.50
2023-03-10T13:51:55.345Z,10.50
2023-03-10T13:54:27.726Z,10.40
2023-03-10T13:56:59.510Z,10.30
2023-03-10T13:59:31.888Z,10.30
2023-03-10T14:02:02.439Z,10.30
2023-03-10T14:04:48.688Z,10.40
2023-03-10T14:07:19.832Z,10.30
2023-03-10T14:09:49.638Z,10.30
2023-03-10T14:12:38.757Z,10.20
2023-03-10T14:15:24.979Z,10.20
2023-03-10T14:17:54.732Z,10.20
2023-03-10T14:20:34.068Z,10.20
2023-03-10T14:23:27.695Z,10.20
2023-03-10T14:25:58.705Z,10.20
2023-03-10T14:28:29.057Z,10.10
2023-03-10T14:30:57.698Z,10.10
2023-03-10T14:33:26.387Z,10.10
2023-03-10T14:35:54.960Z,10.10
2023-03-10T14:38:23.447Z,10.10
2023-03-10T14:40:54.048Z,10.00
2023-03-10T14:43:25.931Z,10.00
2023-03-10T14:45:56.636Z,10.00
2023-03-10T14:48:27.038Z,10.00
2023-03-10T14:50:57.072Z,9.90
2023-03-10T14:53:27.221Z,10.00
2023-03-10T14:55:57.404Z,9.80
2023-03-10T14:58:31.212Z,9.70
2023-03-10T15:01:00.357Z,9.60
2023-03-10T15:03:29.423Z,9.60
2023-03-10T15:05:58.129Z,9.50
2023-03-10T15:08:28.585Z,9.20
2023-03-10T15:10:58.271Z,9.00
2023-03-10T15:13:28.236Z,9.00
2023-03-10T15:15:56.919Z,9.10
2023-03-10T15:18:27.471Z,9.10
2023-03-10T15:21:00.325Z,9.10
2023-03-10T15:23:29.710Z,8.90
2023-03-10T15:25:59.193Z,8.90
2023-03-10T15:28:29.220Z,8.80
2023-03-10T15:30:58.118Z,8.80
2023-03-10T15:33:35.642Z,8.70
2023-03-10T15:36:04.194Z,8.70
2023-03-10T15:38:32.657Z,8.70
2023-03-10T15:41:01.340Z,8.60
2023-03-10T15:43:31.740Z,8.60
2023-03-10T15:46:00.241Z,8.40
2023-03-10T15:48:29.154Z,8.40
2023-03-10T15:50:57.719Z,8.40
2023-03-10T15:53:27.155Z,8.50
2023-03-10T15:55:56.363Z,8.50
2023-03-10T15:58:25.176Z,8.40
2023-03-10T16:00:55.409Z,8.40
2023-03-10T16:03:23.932Z,8.20
2023-03-10T16:05:52.319Z,8.30
2023-03-10T16:08:20.714Z,8.30
2023-03-10T16:10:55.509Z,8.20
2023-03-10T16:13:25.050Z,8.30
2023-03-10T16:15:55.152Z,8.30
2023-03-10T16:18:23.724Z,8.10
2023-03-10T16:20:58.892Z,8.00
2023-03-10T16:23:27.513Z,8.10
2023-03-10T16:26:11.042Z,8.10
2023-03-10T16:28:41.321Z,8.00
2023-03-10T16:31:13.436Z,7.90
2023-03-10T16:33:42.421Z,8.00
2023-03-10T16:36:15.032Z,7.90
2023-03-10T16:38:43.389Z,7.90
2023-03-10T16:41:12.335Z,7.60
2023-03-10T16:43:41.131Z,7.50
2023-03-10T16:46:13.017Z,6.90
2023-03-10T16:48:46.143Z,6.10
2023-03-10T16:51:24.740Z,5.90
2023-03-10T16:53:53.668Z,5.60
2023-03-10T16:56:23.178Z,5.30
2023-03-10T16:58:53.129Z,5.20
2023-03-10T17:01:24.368Z,5.10
2023-03-10T17:03:52.930Z,4.60
2023-03-10T17:06:23.472Z,4.40
2023-03-10T17:08:52.517Z,4.50
2023-03-10T17:11:23.659Z,3.70
2023-03-10T17:13:54.031Z,3.90
2023-03-10T17:16:28.371Z,3.70
2023-03-10T17:18:57.770Z,3.60
2023-03-10T17:21:28.185Z,3.10
2023-03-10T17:23:56.856Z,3.00
2023-03-10T17:26:25.711Z,3.30
2023-03-10T17:28:54.561Z,2.60
2023-03-10T17:31:27.327Z,2.60
2023-03-10T17:33:56.701Z,2.40
2023-03-10T17:36:25.406Z,2.30
2023-03-10T17:38:54.923Z,3.10
2023-03-10T17:41:23.595Z,2.70
2023-03-10T17:43:52.747Z,2.80
2023-03-10T17:46:24.575Z,2.60
2023-03-10T17:48:53.574Z,2.00
2023-03-10T17:51:24.068Z,1.90
2023-03-10T17:53:53.417Z,2.00
2023-03-10T17:56:23.005Z,2.50
2023-03-10T17:58:51.572Z,2.20
2023-03-10T18:01:21.771Z,2.10
2023-03-10T18:03:51.916Z,2.10
2023-03-10T18:06:26.250Z,2.40
2023-03-10T18:08:56.683Z,2.10
2023-03-10T18:11:25.651Z,2.30
2023-03-10T18:13:56.961Z,2.20
2023-03-10T18:16:27.599Z,1.80
2023-03-10T18:18:59.343Z,1.90
2023-03-10T18:21:29.006Z,2.00
2023-03-10T18:23:57.912Z,1.80
2023-03-10T18:26:28.344Z,1.80
2023-03-10T18:28:57.352Z,1.80
2023-03-10T18:31:28.109Z,1.90
2023-03-10T18:34:00.544Z,1.70
2023-03-10T18:36:29.905Z,2.00
2023-03-10T18:39:00.599Z,2.20
2023-03-10T18:41:33.433Z,1.70
2023-03-10T18:44:02.079Z,2.00
2023-03-10T18:46:30.911Z,2.10
2023-03-10T18:49:01.140Z,1.90
2023-03-10T18:51:30.585Z,2.40
2023-03-10T18:54:00.383Z,2.00
2023-03-10T18:56:29.436Z,1.80
2023-03-10T18:58:59.210Z,1.80
2023-03-10T19:01:30.272Z,2.00
2023-03-10T19:04:03.616Z,2.00
2023-03-10T19:06:33.273Z,1.70
2023-03-10T19:09:02.769Z,2.00
2023-03-10T19:11:35.550Z,1.70
2023-03-10T19:14:06.279Z,2.00
2023-03-10T19:16:37.057Z,1.80
2023-03-10T19:19:07.187Z,1.70
2023-03-10T19:21:40.031Z,1.50
2023-03-10T19:24:09.589Z,1.50
2023-03-10T19:26:38.162Z,1.70
2023-03-10T19:29:06.875Z,1.50
2023-03-10T19:31:35.372Z,1.60
2023-03-10T19:34:03.744Z,1.90
2023-03-10T19:36:33.815Z,1.40
2023-03-10T19:39:02.454Z,1.30
2023-03-10T19:41:31.082Z,1.40
2023-03-10T19:43:59.625Z,1.30
2023-03-10T19:46:28.077Z,1.30
2023-03-10T19:48:56.613Z,1.30
2023-03-10T19:51:26.431Z,1.30
2023-03-10T19:53:57.715Z,1.20
2023-03-10T19:56:27.060Z,1.50
2023-03-10T19:58:55.444Z,1.60
2023-03-10T20:01:27.229Z,1.40
2023-03-10T20:03:58.395Z,1.90
2023-03-10T20:06:27.300Z,1.50
2023-03-10T20:08:57.489Z,1.20
2023-03-10T20:11:26.378Z,1.50
2023-03-10T20:14:23.875Z,1.50
2023-03-10T20:16:55.707Z,1.80
2023-03-10T20:19:24.381Z,1.40
2023-03-10T20:21:53.595Z,1.30
2023-03-10T20:24:23.991Z,1.50
2023-03-10T20:26:52.429Z,1.50
2023-03-10T20:29:21.241Z,1.30
2023-03-10T20:31:49.850Z,1.40
2023-03-10T20:34:22.128Z,1.80
2023-03-10T20:36:51.093Z,1.70
2023-03-10T20:39:19.976Z,1.40
2023-03-10T20:41:50.570Z,1.50
2023-03-10T20:44:19.693Z,1.60
2023-03-10T20:46:48.287Z,1.70
2023-03-10T20:49:16.788Z,1.70
2023-03-10T20:51:45.334Z,1.60
2023-03-10T20:54:15.150Z,1.70
2023-03-10T20:56:44.347Z,1.70
2023-03-10T20:59:14.725Z,1.60
2023-03-10T21:01:43.588Z,1.60
2023-03-10T21:04:12.632Z,2.00
2023-03-10T21:06:41.487Z,1.90
2023-03-10T21:09:10.366Z,1.70
2023-03-10T21:11:40.808Z,1.80
2023-03-10T21:14:10.180Z,1.80
2023-03-10T21:16:42.352Z,1.70
2023-03-10T21:19:13.350Z,1.70
2023-03-10T21:21:42.562Z,1.90
2023-03-10T21:24:11.602Z,1.50
2023-03-10T21:26:40.035Z,1.40
2023-03-10T21:29:08.353Z,1.40
2023-03-10T21:31:37.050Z,1.50
2023-03-10T21:34:07.270Z,1.70
2023-03-10T21:36:35.853Z,1.90
2023-03-10T21:39:05.161Z,2.00
2023-03-10T21:41:35.268Z,1.60
2023-03-10T21:44:05.214Z,1.60
2023-03-10T21:46:34.587Z,1.60
2023-03-10T21:49:03.612Z,1.70
2023-03-10T21:51:35.148Z,1.70
2023-03-10T21:54:05.188Z,1.60
2023-03-10T21:56:33.895Z,1.80
2023-03-10T21:59:02.265Z,1.70
2023-03-10T22:01:31.364Z,1.60
2023-03-10T22:04:00.121Z,1.40
2023-03-10T22:06:28.583Z,1.60
2023-03-10T22:08:59.135Z,1.50
2023-03-10T22:11:27.693Z,1.90
2023-03-10T22:13:56.378Z,1.70
2023-03-10T22:16:25.212Z,1.60
2023-03-10T22:18:53.812Z,2.10
2023-03-10T22:21:22.243Z,1.80
2023-03-10T22:23:50.933Z,1.60
2023-03-10T22:26:20.949Z,1.60
2023-03-10T22:28:49.655Z,1.70
2023-03-10T22:31:18.462Z,1.60
2023-03-10T22:33:47.762Z,1.70
2023-03-10T22:36:16.340Z,1.80
2023-03-10T22:38:44.881Z,1.90
2023-03-10T22:41:14.165Z,1.90
2023-03-10T22:43:44.834Z,1.80
2023-03-10T22:46:15.034Z,2.00
2023-03-10T22:48:44.905Z,1.90
